createdAt,value
2023-01-21T07:40:18.051Z,5.62
2023-01-21T07:41:18.017Z,5.62
2023-01-21T07:42:18.013Z,5.62
2023-01-21T07:43:17.999Z,5.62
2023-01-21T07:44:17.986Z,5.62
2023-01-21T07:45:18.367Z,5.62
2023-01-21T07:46:17.962Z,5.62
2023-01-21T07:47:17.958Z,11.25
2023-01-21T07:48:17.930Z,11.25
2023-01-21T07:49:17.919Z,11.25
2023-01-21T07:50:17.915Z,11.25
2023-01-21T07:51:17.950Z,11.25
2023-01-21T07:52:17.899Z,16.88
2023-01-21T07:53:17.888Z,16.88
2023-01-21T07:54:17.871Z,16.88
2023-01-21T07:55:18.089Z,22.50
2023-01-21T07:56:17.860Z,22.50
2023-01-21T07:57:17.859Z,22.50
2023-01-21T07:58:17.822Z,22.50
2023-01-21T07:59:17.813Z,22.50
2023-01-21T08:00:17.819Z,22.50
2023-01-21T08:01:17.887Z,28.12
2023-01-21T08:02:17.909Z,33.75
2023-01-21T08:03:17.763Z,33.75
2023-01-21T08:04:17.763Z,33.75
2023-01-21T08:05:18.091Z,39.38
2023-01-21T08:06:17.729Z,45.00
2023-01-21T08:07:17.748Z,45.00
2023-01-21T08:08:17.720Z,50.62
2023-01-21T08:09:17.703Z,50.62
2023-01-21T08:10:17.683Z,50.62
2023-01-21T08:11:17.699Z,50.62
2023-01-21T08:12:17.699Z,50.62
2023-01-21T08:13:17.653Z,45.00
2023-01-21T08:14:17.636Z,45.00
2023-01-21T08:15:18.030Z,39.38
2023-01-21T08:16:17.663Z,39.38
2023-01-21T08:17:17.621Z,39.38
2023-01-21T08:18:17.596Z,33.75
2023-01-21T08:19:17.599Z,39.38
2023-01-21T08:20:17.570Z,33.75
2023-01-21T08:21:17.561Z,33.75
2023-01-21T08:22:17.591Z,33.75
2023-01-21T08:23:17.565Z,33.75
2023-01-21T08:24:17.528Z,33.75
2023-01-21T08:25:17.915Z,33.75
2023-01-21T08:26:17.516Z,33.75
2023-01-21T08:27:17.529Z,33.75
2023-01-21T08:28:17.520Z,33.75
2023-01-21T08:29:17.485Z,33.75
2023-01-21T08:30:17.460Z,33.75
2023-01-21T08:31:17.558Z,33.75
2023-01-21T08:32:17.449Z,33.75
2023-01-21T08:33:17.443Z,33.75
2023-01-21T08:34:17.424Z,33.75
2023-01-21T08:35:17.664Z,33.75
2023-01-21T08:36:17.391Z,33.75
2023-01-21T08:37:17.394Z,33.75
2023-01-21T08:38:17.382Z,33.75
2023-01-21T08:39:17.379Z,33.75
2023-01-21T08:40:17.357Z,33.75
2023-01-21T08:41:17.338Z,33.75
2023-01-21T08:42:17.341Z,33.75
2023-01-21T08:43:17.329Z,33.75
2023-01-21T08:44:17.356Z,33.75
2023-01-21T08:45:17.681Z,33.75
2023-01-21T08:46:17.292Z,33.75
2023-01-21T08:47:17.308Z,33.75
2023-01-21T08:48:17.268Z,39.38
2023-01-21T08:49:17.308Z,39.38
2023-01-21T08:50:17.257Z,39.38
2023-01-21T08:51:17.277Z,39.38
2023-01-21T08:52:17.225Z,39.38
2023-01-21T08:53:17.224Z,39.38
2023-01-21T08:54:17.194Z,39.38
2023-01-21T08:55:17.465Z,39.38
2023-01-21T08:56:17.179Z,39.38
2023-01-21T08:57:17.200Z,39.38
2023-01-21T08:58:17.163Z,39.38
2023-01-21T08:59:17.131Z,39.38
2023-01-21T09:00:17.165Z,39.38
2023-01-21T09:01:17.173Z,39.38
2023-01-21T09:02:17.185Z,45.00
2023-01-21T09:03:17.129Z,45.00
2023-01-21T09:04:17.097Z,45.00
2023-01-21T09:05:17.383Z,45.00
2023-01-21T09:06:17.073Z,45.00
2023-01-21T09:07:17.053Z,45.00
2023-01-21T09:08:17.046Z,45.00
2023-01-21T09:09:17.033Z,50.62
2023-01-21T09:10:17.027Z,50.62
2023-01-21T09:11:17.022Z,56.25
2023-01-21T09:12:17.034Z,61.88
2023-01-21T09:13:16.990Z,61.88
2023-01-21T09:14:16.981Z,61.88
2023-01-21T09:15:17.271Z,61.88
2023-01-21T09:16:17.034Z,61.88
2023-01-21T09:17:16.962Z,61.88
2023-01-21T09:18:16.923Z,61.88
2023-01-21T09:19:16.929Z,61.88
2023-01-21T09:20:16.914Z,67.50
2023-01-21T09:21:16.916Z,67.50
2023-01-21T09:22:16.917Z,78.75
2023-01-21T09:23:16.879Z,84.38
2023-01-21T09:24:16.871Z,84.38
2023-01-21T09:25:17.121Z,78.75
2023-01-21T09:26:16.848Z,78.75
2023-01-21T09:27:16.845Z,90.00
2023-01-21T09:28:16.831Z,90.00
2023-01-21T09:29:16.812Z,90.00
2023-01-21T09:30:16.800Z,95.62
2023-01-21T09:31:16.867Z,95.62
2023-01-21T09:32:16.801Z,84.38
2023-01-21T09:33:16.751Z,84.38
2023-01-21T09:34:16.747Z,78.75
2023-01-21T09:35:17.059Z,67.50
2023-01-21T09:36:16.720Z,73.12
2023-01-21T09:37:16.721Z,67.50
2023-01-21T09:38:16.715Z,67.50
2023-01-21T09:39:16.702Z,78.75
2023-01-21T09:40:16.694Z,84.38
2023-01-21T09:41:16.722Z,84.38
2023-01-21T09:42:16.669Z,84.38
2023-01-21T09:43:16.641Z,78.75
2023-01-21T09:44:16.644Z,78.75
2023-01-21T09:45:16.968Z,78.75
2023-01-21T09:46:16.688Z,84.38
2023-01-21T09:47:16.608Z,84.38
2023-01-21T09:48:16.615Z,84.38
2023-01-21T09:49:16.572Z,84.38
2023-01-21T09:50:16.606Z,78.75
2023-01-21T09:51:16.629Z,84.38
2023-01-21T09:52:16.617Z,78.75
2023-01-21T09:53:16.542Z,78.75
2023-01-21T09:54:16.528Z,78.75
2023-01-21T09:55:16.717Z,78.75
2023-01-21T09:56:16.504Z,78.75
2023-01-21T09:57:16.482Z,73.12
2023-01-21T09:58:16.507Z,73.12
2023-01-21T09:59:16.458Z,67.50
2023-01-21T10:00:16.457Z,73.12
2023-01-21T10:01:16.573Z,73.12
2023-01-21T10:02:16.436Z,73.12
2023-01-21T10:03:16.429Z,78.75
2023-01-21T10:04:16.500Z,73.12
2023-01-21T10:05:16.687Z,67.50
2023-01-21T10:06:16.399Z,73.12
2023-01-21T10:07:16.384Z,78.75
2023-01-21T10:08:16.382Z,84.38
2023-01-21T10:09:16.360Z,84.38
2023-01-21T10:10:16.359Z,84.38
2023-01-21T10:11:16.325Z,84.38
2023-01-21T10:12:16.324Z,90.00
2023-01-21T10:13:16.313Z,84.38
2023-01-21T10:14:16.295Z,84.38
2023-01-21T10:15:16.497Z,78.75
2023-01-21T10:16:16.383Z,73.12
2023-01-21T10:17:16.261Z,78.75
2023-01-21T10:18:16.271Z,67.50
2023-01-21T10:19:16.239Z,61.88
2023-01-21T10:20:16.361Z,61.88
2023-01-21T10:21:16.234Z,67.50
2023-01-21T10:22:16.218Z,67.50
2023-01-21T10:23:16.401Z,67.50
2023-01-21T10:24:16.195Z,73.12
2023-01-21T10:25:16.482Z,73.12
2023-01-21T10:26:16.163Z,73.12
2023-01-21T10:27:16.151Z,67.50
2023-01-21T10:28:16.151Z,67.50
2023-01-21T10:29:16.127Z,67.50
2023-01-21T10:30:16.123Z,73.12
2023-01-21T10:31:16.296Z,67.50
2023-01-21T10:32:16.117Z,56.25
2023-01-21T10:33:16.092Z,61.88
2023-01-21T10:34:16.082Z,56.25
2023-01-21T10:35:16.401Z,50.62
2023-01-21T10:36:16.071Z,50.62
2023-01-21T10:37:16.032Z,56.25
2023-01-21T10:38:16.054Z,50.62
2023-01-21T10:39:16.013Z,50.62
2023-01-21T10:40:16.017Z,45.00
2023-01-21T10:41:15.988Z,45.00
2023-01-21T10:42:15.983Z,45.00
2023-01-21T10:43:15.992Z,50.62
2023-01-21T10:44:15.959Z,45.00
2023-01-21T10:45:16.245Z,39.38
2023-01-21T10:46:16.071Z,45.00
2023-01-21T10:47:15.933Z,50.62
2023-01-21T10:48:15.933Z,50.62
2023-01-21T10:49:15.909Z,45.00
2023-01-21T10:50:15.918Z,39.38
2023-01-21T10:51:16.034Z,39.38
2023-01-21T10:52:15.891Z,45.00
2023-01-21T10:53:15.865Z,45.00
2023-01-21T10:54:15.858Z,50.62
2023-01-21T10:55:16.210Z,45.00
2023-01-21T10:56:15.828Z,39.38
2023-01-21T10:57:15.813Z,45.00
2023-01-21T10:58:15.832Z,39.38
2023-01-21T10:59:15.798Z,39.38
2023-01-21T11:00:15.792Z,45.00
2023-01-21T11:01:15.833Z,45.00
2023-01-21T11:02:15.859Z,39.38
2023-01-21T11:03:15.766Z,39.38
2023-01-21T11:04:15.732Z,33.75
2023-01-21T11:05:16.024Z,39.38
2023-01-21T11:06:15.711Z,39.38
2023-01-21T11:07:15.696Z,33.75
2023-01-21T11:08:15.725Z,39.38
2023-01-21T11:09:15.683Z,39.38
2023-01-21T11:10:15.666Z,33.75
2023-01-21T11:11:15.656Z,39.38
2023-01-21T11:12:16.190Z,33.75
2023-01-21T11:13:15.626Z,28.12
2023-01-21T11:14:15.633Z,28.12
2023-01-21T11:15:16.137Z,33.75
2023-01-21T11:16:15.617Z,33.75
2023-01-21T11:17:15.596Z,33.75
2023-01-21T11:18:15.579Z,33.75
2023-01-21T11:19:15.597Z,33.75
2023-01-21T11:20:15.553Z,33.75
2023-01-21T11:21:15.541Z,33.75
2023-01-21T11:22:15.545Z,28.12
2023-01-21T11:23:15.527Z,33.75
2023-01-21T11:24:15.550Z,33.75
2023-01-21T11:25:15.968Z,33.75
2023-01-21T11:26:15.487Z,39.38
2023-01-21T11:27:15.469Z,39.38
2023-01-21T11:28:15.465Z,33.75
2023-01-21T11:29:15.458Z,33.75
2023-01-21T11:30:37.121Z,33.75
2023-01-21T11:31:16.603Z,28.12
2023-01-21T11:32:15.598Z,28.12
2023-01-21T11:33:15.413Z,22.50
2023-01-21T11:34:15.425Z,28.12
2023-01-21T11:35:15.394Z,22.50
2023-01-21T11:36:15.384Z,22.50
2023-01-21T11:37:15.444Z,28.12
2023-01-21T11:38:15.369Z,28.12
2023-01-21T11:39:15.346Z,28.12
2023-01-21T11:40:16.524Z,28.12
2023-01-21T11:41:15.317Z,28.12
2023-01-21T11:42:15.304Z,28.12
2023-01-21T11:43:15.301Z,28.12
2023-01-21T11:44:15.317Z,28.12
2023-01-21T11:45:15.692Z,28.12
2023-01-21T11:46:15.349Z,28.12
2023-01-21T11:47:15.244Z,33.75
2023-01-21T11:48:15.251Z,33.75
2023-01-21T11:49:15.248Z,33.75
2023-01-21T11:50:15.517Z,33.75
2023-01-21T11:51:15.260Z,28.12
2023-01-21T11:52:15.192Z,33.75
2023-01-21T11:53:15.197Z,28.12
2023-01-21T11:54:15.170Z,28.12
2023-01-21T11:55:15.174Z,28.12
2023-01-21T11:56:15.204Z,28.12
2023-01-21T11:57:15.132Z,28.12
2023-01-21T11:58:15.141Z,33.75
2023-01-21T11:59:15.110Z,33.75
2023-01-21T12:00:15.315Z,28.12
2023-01-21T12:01:15.099Z,28.12
2023-01-21T12:02:15.079Z,28.12
2023-01-21T12:03:15.065Z,28.12
2023-01-21T12:04:15.075Z,28.12
2023-01-21T12:05:15.053Z,28.12
2023-01-21T12:06:15.061Z,28.12
2023-01-21T12:07:15.025Z,28.12
2023-01-21T12:08:15.031Z,28.12
2023-01-21T12:09:15.005Z,28.12
2023-01-21T12:10:15.266Z,33.75
2023-01-21T12:11:14.975Z,39.38
2023-01-21T12:12:15.022Z,45.00
2023-01-21T12:13:14.965Z,39.38
2023-01-21T12:14:14.952Z,50.62
2023-01-21T12:15:14.941Z,50.62
2023-01-21T12:16:14.988Z,45.00
2023-01-21T12:17:14.913Z,45.00
2023-01-21T12:18:14.910Z,45.00
2023-01-21T12:19:14.895Z,45.00
2023-01-21T12:20:15.332Z,45.00
2023-01-21T12:21:14.862Z,50.62
2023-01-21T12:22:14.869Z,50.62
2023-01-21T12:23:14.851Z,50.62
2023-01-21T12:24:14.846Z,45.00
2023-01-21T12:25:14.822Z,45.00
2023-01-21T12:26:14.826Z,50.62
2023-01-21T12:27:14.810Z,50.62
2023-01-21T12:28:14.809Z,50.62
2023-01-21T12:29:14.775Z,50.62
2023-01-21T12:30:14.842Z,50.62
2023-01-21T12:31:14.890Z,45.00
2023-01-21T12:32:14.743Z,45.00
2023-01-21T12:33:14.740Z,50.62
2023-01-21T12:34:14.733Z,50.62
2023-01-21T12:35:15.033Z,45.00
2023-01-21T12:36:14.709Z,45.00
2023-01-21T12:37:14.695Z,45.00
2023-01-21T12:38:14.691Z,39.38
2023-01-21T12:39:14.671Z,45.00
2023-01-21T12:40:14.790Z,39.38
2023-01-21T12:41:14.633Z,33.75
2023-01-21T12:42:14.646Z,33.75
2023-01-21T12:43:14.613Z,39.38
2023-01-21T12:44:14.643Z,39.38
2023-01-21T12:45:14.629Z,39.38
2023-01-21T12:46:14.659Z,39.38
2023-01-21T12:47:14.569Z,39.38
2023-01-21T12:48:14.566Z,39.38
2023-01-21T12:49:14.559Z,39.38
2023-01-21T12:50:14.544Z,45.00
2023-01-21T12:51:14.620Z,45.00
2023-01-21T12:52:14.519Z,45.00
2023-01-21T12:53:14.515Z,45.00
2023-01-21T12:54:14.523Z,45.00
2023-01-21T12:55:14.546Z,39.38
2023-01-21T12:56:14.485Z,39.38
2023-01-21T12:57:14.455Z,39.38
2023-01-21T12:58:14.464Z,33.75
2023-01-21T12:59:14.449Z,28.12
2023-01-21T13:00:14.507Z,28.12
2023-01-21T13:01:14.528Z,28.12
2023-01-21T13:02:14.465Z,28.12
2023-01-21T13:03:14.388Z,33.75
2023-01-21T13:04:14.397Z,33.75
2023-01-21T13:05:14.498Z,33.75
2023-01-21T13:06:14.372Z,28.12
2023-01-21T13:07:14.348Z,28.12
2023-01-21T13:08:14.335Z,28.12
2023-01-21T13:09:14.350Z,33.75
2023-01-21T13:10:14.367Z,33.75
2023-01-21T13:11:14.311Z,28.12
2023-01-21T13:12:14.314Z,28.12
2023-01-21T13:13:14.278Z,28.12
2023-01-21T13:14:14.287Z,28.12
2023-01-21T13:15:14.289Z,28.12
2023-01-21T13:16:14.313Z,28.12
2023-01-21T13:17:14.250Z,33.75
2023-01-21T13:18:14.235Z,33.75
2023-01-21T13:19:14.213Z,33.75
2023-01-21T13:20:14.209Z,33.75
2023-01-21T13:21:14.191Z,39.38
2023-01-21T13:22:14.175Z,39.38
2023-01-21T13:23:14.170Z,39.38
2023-01-21T13:24:14.238Z,39.38
2023-01-21T13:25:14.172Z,39.38
2023-01-21T13:26:14.177Z,39.38
2023-01-21T13:27:14.155Z,39.38
2023-01-21T13:28:14.125Z,33.75
2023-01-21T13:29:14.113Z,33.75
2023-01-21T13:30:14.284Z,33.75
2023-01-21T13:31:14.202Z,33.75
2023-01-21T13:32:14.209Z,33.75
2023-01-21T13:33:14.069Z,28.12
2023-01-21T13:34:14.041Z,33.75
2023-01-21T13:35:14.061Z,33.75
2023-01-21T13:36:14.029Z,33.75
2023-01-21T13:37:14.011Z,33.75
2023-01-21T13:38:13.995Z,28.12
2023-01-21T13:39:13.999Z,28.12
2023-01-21T13:40:13.998Z,28.12
2023-01-21T13:41:13.979Z,28.12
2023-01-21T13:42:13.951Z,28.12
2023-01-21T13:43:13.958Z,28.12
2023-01-21T13:44:13.927Z,22.50
2023-01-21T13:45:13.974Z,22.50
2023-01-21T13:46:14.042Z,28.12
2023-01-21T13:47:13.918Z,28.12
2023-01-21T13:48:13.919Z,28.12
2023-01-21T13:49:13.888Z,33.75
2023-01-21T13:50:13.882Z,33.75
2023-01-21T13:51:13.957Z,28.12
2023-01-21T13:52:13.857Z,28.12
2023-01-21T13:53:13.844Z,22.50
2023-01-21T13:54:13.827Z,22.50
2023-01-21T13:55:13.829Z,22.50
2023-01-21T13:56:13.828Z,22.50
2023-01-21T13:57:13.797Z,22.50
2023-01-21T13:58:13.771Z,22.50
2023-01-21T13:59:13.760Z,22.50
2023-01-21T14:00:13.750Z,22.50
2023-01-21T14:01:13.871Z,16.88
2023-01-21T14:02:13.847Z,16.88
2023-01-21T14:03:13.723Z,22.50
2023-01-21T14:04:13.742Z,22.50
2023-01-21T14:05:13.694Z,22.50
2023-01-21T14:06:13.693Z,22.50
2023-01-21T14:07:13.688Z,22.50
2023-01-21T14:08:13.657Z,16.88
2023-01-21T14:09:13.662Z,16.88
2023-01-21T14:10:13.649Z,16.88
2023-01-21T14:11:13.643Z,22.50
2023-01-21T14:12:13.614Z,16.88
2023-01-21T14:13:13.608Z,16.88
2023-01-21T14:14:13.602Z,16.88
2023-01-21T14:15:13.595Z,16.88
2023-01-21T14:16:13.636Z,11.25
2023-01-21T14:17:13.562Z,16.88
2023-01-21T14:18:13.542Z,16.88
2023-01-21T14:19:13.535Z,16.88
2023-01-21T14:20:13.547Z,16.88
2023-01-21T14:21:13.519Z,16.88
2023-01-21T14:22:13.527Z,16.88
2023-01-21T14:23:13.505Z,11.25
2023-01-21T14:24:13.490Z,16.88
2023-01-21T14:25:13.502Z,16.88
2023-01-21T14:26:13.456Z,16.88
2023-01-21T14:27:15.215Z,11.25
2023-01-21T14:28:13.433Z,11.25
2023-01-21T14:29:13.424Z,11.25
2023-01-21T14:30:13.428Z,11.25
2023-01-21T14:31:13.610Z,11.25
2023-01-21T14:32:14.019Z,11.25
2023-01-21T14:33:13.382Z,11.25
2023-01-21T14:34:13.382Z,11.25
2023-01-21T14:35:13.368Z,16.88
2023-01-21T14:36:13.360Z,11.25
2023-01-21T14:37:13.353Z,11.25
2023-01-21T14:38:13.318Z,11.25
2023-01-21T14:39:13.325Z,11.25
2023-01-21T14:40:13.296Z,11.25
2023-01-21T14:41:13.303Z,11.25
2023-01-21T14:42:13.287Z,11.25
2023-01-21T14:43:13.295Z,11.25
2023-01-21T14:44:13.250Z,11.25
2023-01-21T14:45:13.245Z,11.25
2023-01-21T14:46:13.367Z,11.25
2023-01-21T14:47:13.235Z,5.62
2023-01-21T14:48:13.221Z,11.25
2023-01-21T14:49:13.207Z,5.62
2023-01-21T14:50:13.183Z,5.62
2023-01-21T14:51:13.297Z,5.62
2023-01-21T14:52:13.187Z,5.62
2023-01-21T14:53:13.174Z,5.62
2023-01-21T14:54:13.164Z,5.62
2023-01-21T14:55:13.139Z,5.62
2023-01-21T14:56:15.869Z,5.62
2023-01-21T14:57:18.724Z,5.62
2023-01-21T14:58:14.309Z,5.62
2023-01-21T14:59:13.101Z,5.62
2023-01-21T15:00:13.103Z,5.62
2023-01-21T15:01:13.136Z,5.62
2023-01-21T15:02:13.139Z,5.62
2023-01-21T15:03:13.065Z,5.62
2023-01-21T15:04:13.026Z,11.25
2023-01-21T15:05:13.036Z,11.25
2023-01-21T15:06:13.016Z,11.25
2023-01-21T15:07:13.010Z,11.25
2023-01-21T15:08:13.034Z,5.62
2023-01-21T15:09:12.975Z,5.62
2023-01-21T15:10:12.958Z,5.62
2023-01-21T15:11:13.067Z,5.62
2023-01-21T15:12:12.950Z,5.62
2023-01-21T15:13:12.948Z,5.62
2023-01-21T15:14:12.920Z,5.62
2023-01-21T15:15:12.923Z,5.62
2023-01-21T15:16:12.961Z,5.62
2023-01-21T15:17:12.883Z,5.62
2023-01-21T15:18:12.881Z,5.62
2023-01-21T15:19:12.890Z,5.62
2023-01-21T15:20:12.858Z,5.62
2023-01-21T15:21:12.853Z,5.62
2023-01-21T15:22:12.840Z,5.62
2023-01-21T15:23:12.821Z,5.62
2023-01-21T15:24:12.854Z,5.62
2023-01-21T15:25:12.806Z,5.62
2023-01-21T15:26:12.820Z,5.62
2023-01-21T15:27:12.771Z,5.62
2023-01-21T15:28:12.772Z,5.62
2023-01-21T15:29:12.776Z,5.62
2023-01-21T15:30:12.748Z,5.62
2023-01-21T15:31:12.881Z,5.62
2023-01-21T15:32:14.384Z,5.62
2023-01-21T15:33:12.729Z,5.62
2023-01-21T15:34:12.716Z,5.62
2023-01-21T15:35:12.720Z,5.62
2023-01-21T15:36:12.679Z,5.62
2023-01-21T15:37:12.672Z,5.62
2023-01-21T15:38:12.647Z,5.62
2023-01-21T15:39:12.664Z,5.62
2023-01-21T15:40:12.659Z,5.62
2023-01-21T15:41:12.633Z,5.62
2023-01-21T15:42:12.621Z,5.62
2023-01-21T15:43:12.606Z,5.62
2023-01-21T15:44:12.582Z,5.62
2023-01-21T15:45:12.592Z,5.62
2023-01-21T15:46:12.641Z,5.62
2023-01-21T15:47:12.546Z,5.62
2023-01-21T15:48:12.536Z,5.62
2023-01-21T15:49:12.532Z,5.62
2023-01-21T15:50:12.541Z,5.62
2023-01-21T15:51:12.604Z,5.62
2023-01-21T15:52:12.482Z,5.62
2023-01-21T15:53:12.490Z,0.00
2023-01-21T15:54:12.462Z,0.00
2023-01-21T15:55:12.469Z,0.00
2023-01-21T15:56:12.480Z,0.00
2023-01-21T15:57:12.453Z,0.00
2023-01-21T15:58:12.443Z,0.00
2023-01-21T15:59:12.412Z,0.00
2023-01-21T16:00:12.398Z,0.00
2023-01-21T16:01:12.433Z,0.00
2023-01-21T16:02:12.471Z,0.00
2023-01-21T16:03:12.383Z,0.00
2023-01-21T16:04:12.368Z,0.00
2023-01-21T16:05:12.360Z,0.00
2023-01-21T16:06:12.342Z,0.00
2023-01-21T16:07:12.343Z,0.00
2023-01-21T16:08:12.398Z,0.00
2023-01-21T16:09:12.396Z,0.00
2023-01-21T16:10:12.296Z,0.00
2023-01-21T16:11:12.299Z,0.00
2023-01-21T16:12:12.312Z,0.00
2023-01-21T16:13:12.255Z,0.00
2023-01-21T16:14:13.842Z,0.00
2023-01-21T16:15:12.241Z,0.00
2023-01-21T16:16:12.317Z,0.00
2023-01-21T16:17:12.230Z,0.00
2023-01-21T16:18:12.194Z,0.00
2023-01-21T16:19:12.192Z,0.00
2023-01-21T16:20:12.185Z,0.00
2023-01-21T16:21:12.178Z,0.00
2023-01-21T16:22:12.164Z,0.00
2023-01-21T16:23:12.142Z,0.00
2023-01-21T16:24:12.126Z,0.00
2023-01-21T16:25:12.124Z,0.00
2023-01-21T16:26:12.111Z,0.00
2023-01-21T16:27:12.110Z,0.00
2023-01-21T16:28:12.100Z,0.00
2023-01-21T16:29:12.077Z,0.00
2023-01-21T16:30:12.078Z,0.00
2023-01-21T16:31:12.206Z,0.00
2023-01-21T16:32:12.066Z,0.00
2023-01-21T16:33:12.093Z,0.00
2023-01-21T16:34:12.014Z,0.00
2023-01-21T16:35:12.019Z,0.00
2023-01-21T16:36:12.005Z,0.00
2023-01-21T16:37:12.000Z,0.00
2023-01-21T16:38:11.981Z,0.00
2023-01-21T16:39:11.976Z,0.00
2023-01-21T16:40:11.969Z,0.00
2023-01-21T16:41:11.958Z,0.00
2023-01-21T16:42:11.942Z,0.00
2023-01-21T16:43:11.935Z,0.00
2023-01-21T16:44:11.936Z,0.00
2023-01-21T16:45:11.891Z,0.00
2023-01-21T16:46:11.974Z,0.00
2023-01-21T16:47:11.899Z,0.00
2023-01-21T16:48:11.856Z,0.00
2023-01-21T16:49:11.849Z,0.00
2023-01-21T16:50:11.833Z,0.00
2023-01-21T16:51:11.887Z,0.00
2023-01-21T16:52:11.824Z,0.00
2023-01-21T16:53:11.803Z,0.00
2023-01-21T16:54:11.796Z,0.00
2023-01-21T16:55:13.030Z,0.00
2023-01-21T16:56:11.766Z,0.00
2023-01-21T16:57:11.771Z,0.00
2023-01-21T16:58:11.743Z,0.00
2023-01-21T16:59:11.751Z,0.00
2023-01-21T17:00:11.761Z,0.00
2023-01-21T17:01:11.768Z,0.00
2023-01-21T17:02:11.749Z,0.00
2023-01-21T17:03:11.691Z,0.00
2023-01-21T17:04:11.680Z,0.00
2023-01-21T17:05:11.700Z,0.00
2023-01-21T17:06:11.654Z,0.00
2023-01-21T17:07:11.663Z,0.00
2023-01-21T17:08:11.685Z,0.00
2023-01-21T17:09:11.626Z,0.00
2023-01-21T17:10:11.608Z,0.00
2023-01-21T17:11:11.625Z,0.00
2023-01-21T17:12:11.603Z,0.00
2023-01-21T17:13:11.614Z,0.00
2023-01-21T17:14:11.562Z,0.00
2023-01-21T17:15:11.562Z,0.00
2023-01-21T17:16:11.594Z,0.00
2023-01-21T17:17:11.551Z,0.00
2023-01-21T17:18:11.539Z,0.00
2023-01-21T17:19:11.512Z,0.00
2023-01-21T17:20:11.504Z,0.00
2023-01-21T17:21:11.532Z,0.00
2023-01-21T17:22:11.489Z,0.00
2023-01-21T17:23:11.497Z,0.00
2023-01-21T17:24:11.464Z,0.00
2023-01-21T17:25:11.443Z,0.00
2023-01-21T17:26:11.446Z,0.00
2023-01-21T17:27:11.441Z,0.00
2023-01-21T17:28:11.432Z,0.00
2023-01-21T17:29:11.417Z,0.00
2023-01-21T17:30:11.397Z,0.00
2023-01-21T17:31:11.527Z,0.00
2023-01-21T17:32:11.401Z,0.00
2023-01-21T17:33:11.380Z,0.00
2023-01-21T17:34:11.364Z,0.00
2023-01-21T17:35:11.344Z,0.00
2023-01-21T17:36:11.348Z,0.00
2023-01-21T17:37:11.303Z,0.00
2023-01-21T17:38:11.324Z,0.00
2023-01-21T17:39:11.300Z,0.00
2023-01-21T17:40:11.298Z,0.00
2023-01-21T17:41:11.272Z,0.00
2023-01-21T17:42:11.251Z,0.00
2023-01-21T17:43:11.265Z,0.00
2023-01-21T17:44:11.243Z,0.00
2023-01-21T17:45:11.216Z,0.00
2023-01-21T17:46:11.303Z,0.00
2023-01-21T17:47:11.200Z,0.00
2023-01-21T17:48:14.437Z,0.00
2023-01-21T17:49:11.184Z,0.00
2023-01-21T17:50:11.160Z,0.00
2023-01-21T17:51:11.244Z,0.00
2023-01-21T17:52:11.148Z,0.00
2023-01-21T17:53:11.149Z,0.00
2023-01-21T17:54:11.116Z,0.00
2023-01-21T17:55:11.101Z,0.00
2023-01-21T17:56:11.091Z,0.00
2023-01-21T17:57:11.102Z,0.00
2023-01-21T17:58:11.086Z,0.00
2023-01-21T17:59:11.055Z,0.00
2023-01-21T18:00:11.049Z,0.00
2023-01-21T18:01:11.122Z,0.00
2023-01-21T18:02:11.053Z,0.00
2023-01-21T18:03:11.093Z,0.00
2023-01-21T18:04:11.047Z,0.00
2023-01-21T18:05:11.009Z,0.00
2023-01-21T18:06:10.981Z,0.00
2023-01-21T18:07:10.983Z,0.00
2023-01-21T18:08:10.975Z,0.00
2023-01-21T18:09:10.944Z,0.00
2023-01-21T18:10:10.953Z,0.00
2023-01-21T18:11:10.933Z,0.00
2023-01-21T18:12:10.916Z,0.00
2023-01-21T18:13:10.915Z,0.00
2023-01-21T18:14:10.895Z,0.00
2023-01-21T18:15:10.889Z,0.00
2023-01-21T18:16:10.960Z,0.00
2023-01-21T18:17:10.856Z,0.00
2023-01-21T18:18:10.878Z,0.00
2023-01-21T18:19:10.828Z,0.00
2023-01-21T18:20:10.859Z,0.00
2023-01-21T18:21:10.823Z,0.00
2023-01-21T18:22:10.803Z,0.00
2023-01-21T18:23:10.819Z,0.00
2023-01-21T18:24:10.859Z,0.00
2023-01-21T18:25:10.780Z,0.00
2023-01-21T18:26:10.777Z,0.00
2023-01-21T18:27:10.741Z,0.00
2023-01-21T18:28:10.759Z,0.00
2023-01-21T18:29:10.720Z,0.00
2023-01-21T18:30:10.713Z,0.00
2023-01-21T18:31:10.946Z,0.00
2023-01-21T18:32:10.705Z,0.00
2023-01-21T18:33:10.692Z,0.00
2023-01-21T18:34:10.681Z,0.00
2023-01-21T18:35:10.653Z,0.00
2023-01-21T18:36:10.682Z,0.00
2023-01-21T18:37:10.646Z,0.00
2023-01-21T18:38:10.634Z,0.00
2023-01-21T18:39:10.632Z,0.00
2023-01-21T18:40:10.603Z,0.00
2023-01-21T18:41:10.583Z,0.00
2023-01-21T18:42:10.579Z,0.00
2023-01-21T18:43:10.577Z,0.00
2023-01-21T18:44:10.583Z,0.00
2023-01-21T18:45:10.542Z,0.00
2023-01-21T18:46:10.570Z,0.00
2023-01-21T18:47:10.515Z,0.00
2023-01-21T18:48:10.521Z,0.00
2023-01-21T18:49:10.528Z,0.00
2023-01-21T18:50:10.508Z,0.00
2023-01-21T18:51:10.530Z,0.00
2023-01-21T18:52:10.490Z,0.00
2023-01-21T18:53:10.450Z,0.00
2023-01-21T18:54:10.452Z,0.00
2023-01-21T18:55:10.433Z,0.00
2023-01-21T18:56:10.433Z,0.00
2023-01-21T18:57:10.409Z,0.00
2023-01-21T18:58:10.408Z,0.00
2023-01-21T18:59:10.396Z,0.00
2023-01-21T19:00:10.386Z,0.00
2023-01-21T19:01:22.012Z,0.00
2023-01-21T19:02:11.452Z,0.00
2023-01-21T19:03:10.372Z,0.00
2023-01-21T19:04:10.375Z,0.00
2023-01-21T19:05:10.329Z,0.00
2023-01-21T19:06:10.305Z,0.00
2023-01-21T19:07:10.290Z,0.00
2023-01-21T19:08:10.312Z,0.00
2023-01-21T19:09:12.489Z,0.00
2023-01-21T19:10:11.403Z,0.00
2023-01-21T19:11:10.255Z,0.00
2023-01-21T19:12:10.254Z,0.00
2023-01-21T19:13:10.280Z,0.00
2023-01-21T19:14:10.262Z,0.00
2023-01-21T19:15:10.215Z,0.00
2023-01-21T19:16:10.257Z,0.00
2023-01-21T19:17:10.187Z,0.00
2023-01-21T19:18:10.168Z,0.00
2023-01-21T19:19:10.179Z,0.00
2023-01-21T19:20:10.147Z,0.00
2023-01-21T19:21:10.146Z,0.00
2023-01-21T19:22:10.151Z,0.00
2023-01-21T19:23:10.123Z,0.00
2023-01-21T19:24:12.096Z,0.00
2023-01-21T19:25:10.088Z,0.00
2023-01-21T19:26:10.099Z,0.00
2023-01-21T19:27:10.069Z,0.00
2023-01-21T19:28:10.069Z,0.00
2023-01-21T19:29:10.066Z,0.00
2023-01-21T19:30:10.046Z,0.00
2023-01-21T19:31:10.214Z,0.00
2023-01-21T19:32:10.135Z,0.00
2023-01-21T19:33:10.024Z,0.00
2023-01-21T19:34:10.020Z,0.00
2023-01-21T19:35:09.992Z,0.00
2023-01-21T19:36:09.968Z,0.00
2023-01-21T19:37:09.958Z,0.00
2023-01-21T19:38:09.962Z,0.00
2023-01-21T19:39:09.958Z,0.00
2023-01-21T19:40:10.021Z,0.00
2023-01-21T19:41:09.913Z,0.00
2023-01-21T19:42:09.898Z,0.00
2023-01-21T19:43:09.900Z,0.00
2023-01-21T19:44:09.906Z,0.00
2023-01-21T19:45:09.874Z,0.00
2023-01-21T19:46:09.853Z,0.00
2023-01-21T19:47:09.837Z,0.00
2023-01-21T19:48:09.834Z,0.00
2023-01-21T19:49:10.330Z,0.00
2023-01-21T19:50:09.830Z,0.00
2023-01-21T19:51:09.881Z,0.00
2023-01-21T19:52:09.802Z,0.00
2023-01-21T19:53:09.803Z,0.00
2023-01-21T19:54:09.777Z,0.00
2023-01-21T19:55:09.762Z,0.00
2023-01-21T19:56:09.777Z,0.00
2023-01-21T19:57:09.731Z,0.00
2023-01-21T19:58:09.719Z,0.00
2023-01-21T19:59:09.714Z,0.00
2023-01-21T20:00:09.711Z,0.00
2023-01-21T20:01:09.705Z,0.00
2023-01-21T20:02:09.781Z,0.00
2023-01-21T20:03:09.658Z,0.00
2023-01-21T20:04:09.669Z,0.00
2023-01-21T20:05:09.635Z,0.00
2023-01-21T20:06:09.644Z,0.00
2023-01-21T20:07:09.613Z,0.00
2023-01-21T20:08:09.686Z,0.00
2023-01-21T20:09:10.686Z,0.00
2023-01-21T20:10:09.587Z,0.00
2023-01-21T20:11:09.565Z,0.00
2023-01-21T20:12:09.604Z,0.00
2023-01-21T20:13:09.546Z,0.00
2023-01-21T20:14:09.564Z,0.00
2023-01-21T20:15:09.528Z,0.00
2023-01-21T20:16:09.550Z,0.00
2023-01-21T20:17:09.508Z,0.00
2023-01-21T20:18:09.509Z,0.00
2023-01-21T20:19:09.495Z,0.00
2023-01-21T20:20:09.490Z,0.00
2023-01-21T20:21:09.462Z,0.00
2023-01-21T20:22:09.446Z,0.00
2023-01-21T20:23:09.433Z,0.00
2023-01-21T20:24:09.460Z,0.00
2023-01-21T20:25:09.411Z,0.00
2023-01-21T20:26:09.418Z,0.00
2023-01-21T20:27:10.798Z,0.00
2023-01-21T20:28:09.409Z,0.00
2023-01-21T20:29:09.364Z,0.00
2023-01-21T20:30:16.106Z,0.00
2023-01-21T20:31:10.455Z,0.00
2023-01-21T20:32:09.348Z,0.00
2023-01-21T20:33:09.319Z,0.00
2023-01-21T20:34:09.320Z,0.00
2023-01-21T20:35:09.325Z,0.00
2023-01-21T20:36:09.304Z,0.00
2023-01-21T20:37:09.290Z,0.00
2023-01-21T20:38:09.282Z,0.00
2023-01-21T20:39:09.269Z,0.00
2023-01-21T20:40:09.271Z,0.00
2023-01-21T20:41:09.242Z,0.00
2023-01-21T20:42:09.221Z,0.00
2023-01-21T20:43:09.220Z,0.00
2023-01-21T20:44:09.233Z,0.00